createdAt,value
2023-04-12T00:00:40.559Z,100541.09
2023-04-12T00:03:12.356Z,100538.94
2023-04-12T00:05:49.255Z,100533.81
2023-04-12T00:08:18.812Z,100517.78
2023-04-12T00:10:47.857Z,100516.16
2023-04-12T00:13:18.499Z,100504.47
2023-04-12T00:15:47.414Z,100504.41
2023-04-12T00:18:17.716Z,100505.66
2023-04-12T00:20:49.933Z,100513.94
2023-04-12T00:23:19.496Z,100487.53
2023-04-12T00:25:48.482Z,100475.72
2023-04-12T00:28:20.293Z,100472.06
2023-04-12T00:30:49.718Z,100461.13
2023-04-12T00:33:19.161Z,100457.91
2023-04-12T00:35:48.161Z,100459.84
2023-04-12T00:38:19.272Z,100447.88
2023-04-12T00:40:48.190Z,100446.97
2023-04-12T00:43:19.098Z,100438.34
2023-04-12T00:45:50.037Z,100431.31
2023-04-12T00:48:19.111Z,100438.19
2023-04-12T00:50:49.287Z,100413.31
2023-04-12T00:53:22.286Z,100399.94
2023-04-12T00:55:53.008Z,100393.41
2023-04-12T00:58:26.873Z,100404.53
2023-04-12T01:00:57.601Z,100383.38
2023-04-12T01:03:28.197Z,100377.72
2023-04-12T01:06:11.065Z,100362.50
2023-04-12T01:08:55.993Z,100364.00
2023-04-12T01:11:34.486Z,100350.31
2023-04-12T01:14:25.324Z,100360.75
2023-04-12T01:16:58.954Z,100355.09
2023-04-12T01:19:54.439Z,100339.94
2023-04-12T01:22:46.305Z,100330.00
2023-04-12T01:25:34.449Z,100311.47
2023-04-12T01:28:11.302Z,100305.69
2023-04-12T01:30:45.915Z,100282.81
2023-04-12T01:33:17.506Z,100286.81
2023-04-12T01:35:48.824Z,100276.72
2023-04-12T01:38:18.572Z,100268.78
2023-04-12T01:40:47.335Z,100280.53
2023-04-12T01:43:18.254Z,100270.50
2023-04-12T01:45:47.532Z,100270.97
2023-04-12T01:48:21.285Z,100256.09
2023-04-12T01:51:09.702Z,100254.75
2023-04-12T01:53:56.667Z,100230.56
2023-04-12T01:56:31.230Z,100236.88
2023-04-12T01:59:04.650Z,100222.22
2023-04-12T02:01:33.641Z,100223.63
2023-04-12T02:04:05.130Z,100217.31
2023-04-12T02:06:36.438Z,100215.81
2023-04-12T02:09:07.696Z,100210.09
2023-04-12T02:11:37.277Z,100199.28
2023-04-12T02:14:10.696Z,100193.81
2023-04-12T02:16:42.887Z,100185.63
2023-04-12T02:19:12.423Z,100181.91
2023-04-12T02:21:46.438Z,100185.84
2023-04-12T02:24:16.512Z,100178.44
2023-04-12T02:26:46.085Z,100163.00
2023-04-12T02:29:18.097Z,100156.00
2023-04-12T02:31:48.677Z,100163.94
2023-04-12T02:34:19.085Z,100136.38
2023-04-12T02:36:49.542Z,100141.53
2023-04-12T02:39:19.720Z,100132.16
2023-04-12T02:41:48.823Z,100130.13
2023-04-12T02:44:22.025Z,100116.31
2023-04-12T02:46:52.148Z,100116.19
2023-04-12T02:49:23.381Z,100103.44
2023-04-12T02:51:53.542Z,100106.56
2023-04-12T02:54:22.687Z,100093.25
2023-04-12T02:56:53.430Z,100082.91
2023-04-12T02:59:27.335Z,100078.91
2023-04-12T03:01:56.877Z,100053.19
2023-04-12T03:04:30.418Z,100059.88
2023-04-12T03:06:59.286Z,100054.03
2023-04-12T03:09:29.374Z,100065.81
2023-04-12T03:11:57.890Z,100051.25
2023-04-12T03:14:28.143Z,100047.94
2023-04-12T03:16:59.013Z,100031.59
2023-04-12T03:19:30.590Z,100036.22
2023-04-12T03:21:59.832Z,100035.41
2023-04-12T03:24:29.883Z,100038.19
2023-04-12T03:26:59.660Z,100035.72
2023-04-12T03:29:31.626Z,100032.56
2023-04-12T03:32:01.206Z,100034.00
2023-04-12T03:34:32.778Z,100026.50
2023-04-12T03:37:03.442Z,100012.44
2023-04-12T03:39:33.268Z,99998.63
2023-04-12T03:42:02.676Z,99996.41
2023-04-12T03:44:33.662Z,99999.81
2023-04-12T03:47:02.823Z,99992.03
2023-04-12T03:49:31.756Z,99992.94
2023-04-12T03:52:07.872Z,99995.47
2023-04-12T03:54:36.908Z,99985.22
2023-04-12T03:57:05.992Z,99985.28
2023-04-12T03:59:37.551Z,99975.19
2023-04-12T04:02:07.408Z,100144.50
2023-04-12T04:04:38.984Z,100135.47
2023-04-12T04:07:09.638Z,100077.50
2023-04-12T04:09:43.127Z,100004.69
2023-04-12T04:12:12.334Z,99971.03
2023-04-12T04:14:42.388Z,99955.16
2023-04-12T04:17:11.243Z,99943.00
2023-04-12T04:19:40.909Z,99933.72
2023-04-12T04:22:12.498Z,99930.31
2023-04-12T04:24:40.981Z,99932.06
2023-04-12T04:27:09.724Z,99927.06
2023-04-12T04:29:45.724Z,99915.47
2023-04-12T04:32:16.046Z,99912.81
2023-04-12T04:34:46.852Z,99905.75
2023-04-12T04:37:17.473Z,99911.06
2023-04-12T04:39:49.432Z,99911.06
2023-04-12T04:42:21.527Z,99917.31
2023-04-12T04:44:51.954Z,99922.97
2023-04-12T04:47:22.632Z,99908.31
2023-04-12T04:49:54.464Z,99914.28
2023-04-12T04:52:23.448Z,99907.88
2023-04-12T04:54:58.248Z,99903.91
2023-04-12T04:57:29.689Z,99920.94
2023-04-12T05:00:01.595Z,99903.78
2023-04-12T05:02:34.652Z,99898.69
2023-04-12T05:05:04.791Z,99907.44
2023-04-12T05:07:33.882Z,99904.44
2023-04-12T05:10:04.736Z,99885.19
2023-04-12T05:12:34.504Z,99893.09
2023-04-12T05:15:11.768Z,99900.81
2023-04-12T05:17:57.798Z,99899.09
2023-04-12T05:20:35.211Z,99910.34
2023-04-12T05:23:09.715Z,99894.06
2023-04-12T05:25:39.313Z,99893.75
2023-04-12T05:28:14.945Z,99891.00
2023-04-12T05:30:56.265Z,99893.06
2023-04-12T05:33:35.443Z,99880.59
2023-04-12T05:36:12.924Z,99875.91
2023-04-12T05:38:45.723Z,99886.56
2023-04-12T05:41:14.346Z,99879.66
2023-04-12T05:43:43.231Z,99875.53
2023-04-12T05:46:13.890Z,99872.16
2023-04-12T05:48:47.107Z,99881.50
2023-04-12T05:51:15.621Z,99877.16
2023-04-12T05:53:45.134Z,99884.53
2023-04-12T05:56:16.972Z,99879.19
2023-04-12T05:58:47.376Z,99881.88
2023-04-12T06:01:22.682Z,99884.63
2023-04-12T06:03:54.257Z,99890.72
2023-04-12T06:06:26.416Z,99873.88
2023-04-12T06:08:55.517Z,99870.25
2023-04-12T06:11:24.833Z,99877.94
2023-04-12T06:13:55.605Z,99878.41
2023-04-12T06:16:27.355Z,99883.41
2023-04-12T06:19:00.790Z,99880.50
2023-04-12T06:21:31.317Z,99878.63
2023-04-12T06:24:01.659Z,99870.75
2023-04-12T06:26:39.408Z,99856.28
2023-04-12T06:29:09.651Z,99853.13
2023-04-12T06:31:38.215Z,99861.94
2023-04-12T06:34:11.229Z,99858.41
2023-04-12T06:36:42.411Z,99860.72
2023-04-12T06:39:12.617Z,99857.72
2023-04-12T06:41:44.133Z,99844.38
2023-04-12T06:44:12.930Z,99842.06
2023-04-12T06:46:42.556Z,99850.91
2023-04-12T06:49:13.280Z,99832.50
2023-04-12T06:51:43.402Z,99840.16
2023-04-12T06:54:11.969Z,99851.06
2023-04-12T06:56:41.141Z,99859.84
2023-04-12T06:59:09.944Z,99860.00
2023-04-12T07:01:41.313Z,99852.94
2023-04-12T07:04:14.724Z,99855.16
2023-04-12T07:06:43.462Z,99853.56
2023-04-12T07:09:13.991Z,99845.16
2023-04-12T07:11:43.311Z,99837.94
2023-04-12T07:14:12.282Z,99861.72
2023-04-12T07:16:41.104Z,99855.16
2023-04-12T07:19:11.452Z,99854.56
2023-04-12T07:21:42.230Z,99853.31
2023-04-12T07:24:11.078Z,99856.09
2023-04-12T07:26:42.608Z,99851.38
2023-04-12T07:29:11.172Z,99853.22
2023-04-12T07:31:39.815Z,99864.03
2023-04-12T07:34:08.691Z,99857.31
2023-04-12T07:36:39.406Z,99859.78
2023-04-12T07:39:12.018Z,99855.44
2023-04-12T07:41:43.287Z,99846.44
2023-04-12T07:44:13.581Z,99853.66
2023-04-12T07:46:42.476Z,99849.56
2023-04-12T07:49:11.723Z,99846.50
2023-04-12T07:51:42.654Z,99851.47
2023-04-12T07:54:13.306Z,99836.31
2023-04-12T07:56:42.337Z,99852.94
2023-04-12T07:59:11.244Z,99837.38
2023-04-12T08:01:40.454Z,99839.31
2023-04-12T08:04:10.038Z,99842.81
2023-04-12T08:06:41.660Z,99830.97
2023-04-12T08:09:10.321Z,99835.41
2023-04-12T08:11:38.910Z,99829.59
2023-04-12T08:14:11.792Z,99833.06
2023-04-12T08:16:41.346Z,99826.63
2023-04-12T08:19:10.329Z,99829.25
2023-04-12T08:21:41.297Z,99811.50
2023-04-12T08:24:13.502Z,99807.28
2023-04-12T08:26:42.225Z,99812.22
2023-04-12T08:29:11.672Z,99810.16
2023-04-12T08:31:41.609Z,99805.59
2023-04-12T08:34:11.265Z,99811.53
2023-04-12T08:36:42.197Z,99812.72
2023-04-12T08:39:11.130Z,99812.28
2023-04-12T08:41:43.078Z,99808.94
2023-04-12T08:44:14.383Z,99811.78
2023-04-12T08:46:45.020Z,99808.38
2023-04-12T08:49:13.971Z,99803.66
2023-04-12T08:51:45.902Z,99805.09
2023-04-12T08:54:15.143Z,99801.41
2023-04-12T08:56:52.507Z,99798.75
2023-04-12T08:59:23.477Z,99801.72
2023-04-12T09:01:55.843Z,99801.88
2023-04-12T09:04:25.428Z,99800.91
2023-04-12T09:06:56.987Z,99801.94
2023-04-12T09:09:44.238Z,99794.28
2023-04-12T09:12:13.734Z,99803.38
2023-04-12T09:14:45.415Z,99808.06
2023-04-12T09:17:24.717Z,99788.19
2023-04-12T09:19:55.931Z,99787.91
2023-04-12T09:22:37.843Z,99784.50
2023-04-12T09:25:08.410Z,99786.25
2023-04-12T09:27:48.958Z,99786.34
2023-04-12T09:30:22.492Z,99781.63
2023-04-12T09:32:54.398Z,99789.50
2023-04-12T09:35:35.921Z,99795.06
2023-04-12T09:38:11.065Z,99798.53
2023-04-12T09:40:41.271Z,99792.41
2023-04-12T09:43:10.836Z,99805.28
2023-04-12T09:45:40.672Z,99804.03
2023-04-12T09:48:20.541Z,99804.00
2023-04-12T09:50:49.290Z,99801.31
2023-04-12T09:53:23.756Z,99804.72
2023-04-12T09:55:56.804Z,99821.16
2023-04-12T09:58:30.655Z,99807.91
2023-04-12T10:01:04.276Z,99807.66
2023-04-12T10:03:33.648Z,99799.22
2023-04-12T10:06:04.800Z,99796.19
2023-04-12T10:08:36.652Z,99798.38
2023-04-12T10:11:07.309Z,99791.44
2023-04-12T10:13:39.368Z,99793.16
2023-04-12T10:16:11.280Z,99783.44
2023-04-12T10:18:41.809Z,99781.94
2023-04-12T10:21:11.283Z,99778.44
2023-04-12T10:23:42.274Z,99790.44
2023-04-12T10:26:11.268Z,99786.56
2023-04-12T10:28:39.960Z,99790.41
2023-04-12T10:34:31.686Z,99769.63
2023-04-12T10:37:04.557Z,99790.88
2023-04-12T10:39:42.762Z,99780.56
2023-04-12T10:42:25.398Z,99775.69
2023-04-12T10:45:00.387Z,99776.97
2023-04-12T10:48:01.549Z,99790.22
2023-04-12T10:50:34.243Z,99779.16
2023-04-12T10:53:27.664Z,99779.41
2023-04-12T10:55:59.265Z,99777.09
2023-04-12T10:59:00.808Z,99785.72
2023-04-12T11:01:32.954Z,99779.09
2023-04-12T11:04:17.393Z,99784.41
2023-04-12T11:07:02.971Z,99782.81
2023-04-12T11:09:44.660Z,99791.63
2023-04-12T11:12:17.355Z,99786.56
2023-04-12T11:14:48.359Z,99792.75
2023-04-12T11:17:38.032Z,99801.13
2023-04-12T11:20:19.725Z,99794.25
2023-04-12T11:22:51.024Z,99794.25
2023-04-12T11:25:23.112Z,99795.25
2023-04-12T11:27:55.899Z,99805.31
2023-04-12T11:30:29.480Z,99787.78
2023-04-12T11:33:01.393Z,99795.22
2023-04-12T11:35:39.220Z,99794.19
2023-04-12T11:38:10.641Z,99781.03
2023-04-12T11:40:42.357Z,99781.03
2023-04-12T11:43:32.584Z,99778.78
2023-04-12T11:46:06.598Z,99789.56
2023-04-12T11:48:39.090Z,99783.91
2023-04-12T11:51:32.119Z,99785.50
2023-04-12T11:54:03.758Z,99788.78
2023-04-12T11:56:37.606Z,99790.16
2023-04-12T11:59:20.063Z,99780.81
2023-04-12T12:01:56.495Z,99788.88
2023-04-12T12:04:29.799Z,99781.59
2023-04-12T12:07:16.810Z,99781.59
2023-04-12T12:09:49.773Z,99780.38
2023-04-12T12:12:23.640Z,99779.47
2023-04-12T12:15:08.721Z,99786.66
2023-04-12T12:17:39.799Z,99786.25
2023-04-12T12:20:20.812Z,99781.16
2023-04-12T12:22:50.713Z,99782.69
2023-04-12T12:25:21.570Z,99782.19
2023-04-12T12:27:51.386Z,99779.38
2023-04-12T12:30:22.587Z,99776.19
2023-04-12T12:32:53.447Z,99785.63
2023-04-12T12:35:30.665Z,99779.38
2023-04-12T12:38:01.163Z,99792.25
2023-04-12T12:40:36.698Z,99787.00
2023-04-12T12:43:08.171Z,99794.47
2023-04-12T12:45:41.969Z,99802.66
2023-04-12T12:48:11.955Z,99788.13
2023-04-12T12:50:40.891Z,99796.47
2023-04-12T12:53:10.871Z,99803.47
2023-04-12T12:55:40.676Z,99800.81
2023-04-12T12:58:09.138Z,99801.13
2023-04-12T13:00:37.772Z,99806.88
2023-04-12T13:03:08.456Z,99803.78
2023-04-12T13:05:39.920Z,99807.47
2023-04-12T13:08:08.869Z,99805.63
2023-04-12T13:10:37.505Z,99819.53
2023-04-12T13:13:06.271Z,99811.25
2023-04-12T13:15:36.719Z,99824.84
2023-04-12T13:18:11.968Z,99824.38
2023-04-12T13:20:41.160Z,99821.91
2023-04-12T13:23:10.440Z,99815.91
2023-04-12T13:25:40.251Z,99816.00
2023-04-12T13:28:10.375Z,99809.72
2023-04-12T13:30:39.077Z,99807.66
2023-04-12T13:33:09.930Z,99814.66
2023-04-12T13:35:38.375Z,99813.78
2023-04-12T13:38:07.544Z,99801.31
2023-04-12T13:40:39.565Z,99787.84
2023-04-12T13:43:08.861Z,99785.06
2023-04-12T13:45:39.893Z,99782.97
2023-04-12T13:48:12.177Z,99791.59
2023-04-12T13:50:55.715Z,99785.25
2023-04-12T13:53:24.532Z,99791.84
2023-04-12T13:55:54.186Z,99793.59
2023-04-12T13:58:26.116Z,99793.91
2023-04-12T14:01:00.677Z,99794.72
2023-04-12T14:03:31.280Z,99790.63
2023-04-12T14:06:01.194Z,99801.25
2023-04-12T14:08:32.010Z,99798.97
2023-04-12T14:11:02.035Z,99791.81
2023-04-12T14:13:30.882Z,99790.03
2023-04-12T14:15:59.643Z,99810.53
2023-04-12T14:18:30.228Z,99798.34
2023-04-12T14:20:59.437Z,99793.66
2023-04-12T14:23:36.546Z,99796.13
2023-04-12T14:26:06.729Z,99792.72
2023-04-12T14:28:37.942Z,99789.69
2023-04-12T14:31:07.946Z,99786.13
2023-04-12T14:33:41.969Z,99781.19
2023-04-12T14:36:11.770Z,99781.91
2023-04-12T14:38:42.040Z,99768.69
2023-04-12T14:41:14.095Z,99766.56
2023-04-12T14:43:47.825Z,99774.13
2023-04-12T14:46:21.316Z,99778.28
2023-04-12T14:48:52.799Z,99768.16
2023-04-12T14:51:21.797Z,99773.44
2023-04-12T14:53:51.923Z,99767.72
2023-04-12T14:56:30.192Z,99772.88
2023-04-12T14:59:00.454Z,99769.03
2023-04-12T15:01:30.949Z,99768.31
2023-04-12T15:04:07.847Z,99763.56
2023-04-12T15:06:42.540Z,99767.88
2023-04-12T15:09:17.700Z,99775.84
2023-04-12T15:12:01.521Z,99779.25
2023-04-12T15:14:30.398Z,99776.44
2023-04-12T15:17:01.566Z,99788.88
2023-04-12T15:19:36.002Z,99782.63
2023-04-12T15:22:05.764Z,99779.63
2023-04-12T15:24:37.151Z,99788.63
2023-04-12T15:27:08.466Z,99796.91
2023-04-12T15:29:37.267Z,99803.41
2023-04-12T15:32:14.010Z,99799.50
2023-04-12T15:34:45.502Z,99795.13
2023-04-12T15:37:14.662Z,99798.25
2023-04-12T15:39:43.163Z,99806.06
2023-04-12T15:42:13.694Z,99803.19
2023-04-12T15:44:45.674Z,99806.22
2023-04-12T15:47:14.733Z,99802.19
2023-04-12T15:49:45.267Z,99797.25
2023-04-12T15:52:14.799Z,99798.91
2023-04-12T15:54:48.538Z,99796.34
2023-04-12T15:57:17.228Z,99792.81
2023-04-12T15:59:45.772Z,99797.59
2023-04-12T16:02:15.032Z,99797.16
2023-04-12T16:05:04.057Z,99803.53
2023-04-12T16:07:34.017Z,99803.06
2023-04-12T16:10:03.681Z,99807.75
2023-04-12T16:12:33.043Z,99809.31
2023-04-12T16:15:05.191Z,99805.44
2023-04-12T16:17:34.943Z,99815.31
2023-04-12T16:20:10.328Z,99809.06
2023-04-12T16:22:39.991Z,99811.81
2023-04-12T16:25:13.648Z,99802.59
2023-04-12T16:27:43.896Z,99814.00
2023-04-12T16:30:13.848Z,99815.25
2023-04-12T16:32:46.898Z,99809.84
2023-04-12T16:35:24.321Z,99805.06
2023-04-12T16:38:02.108Z,99808.94
2023-04-12T16:40:31.814Z,99806.13
2023-04-12T16:43:14.432Z,99805.25
2023-04-12T16:45:45.781Z,99797.72
2023-04-12T16:48:16.098Z,99791.31
2023-04-12T16:50:48.470Z,99791.13
2023-04-12T16:53:20.182Z,99785.31
2023-04-12T16:55:58.031Z,99785.75
2023-04-12T16:58:27.304Z,99786.41
2023-04-12T17:00:58.339Z,99777.13
2023-04-12T17:03:33.935Z,99780.63
2023-04-12T17:06:05.647Z,99771.34
2023-04-12T17:08:34.303Z,99769.69
2023-04-12T17:11:08.363Z,99757.31
2023-04-12T17:13:37.276Z,99758.13
2023-04-12T17:16:08.924Z,99767.81
2023-04-12T17:18:40.170Z,99746.25
2023-04-12T17:21:13.436Z,99761.00
2023-04-12T17:23:45.809Z,99757.59
2023-04-12T17:26:14.969Z,99755.06
2023-04-12T17:28:43.613Z,99746.13
2023-04-12T17:31:12.577Z,99742.81
2023-04-12T17:33:41.627Z,99740.84
2023-04-12T17:36:13.283Z,99739.72
2023-04-12T17:38:43.014Z,99746.13
2023-04-12T17:41:12.435Z,99745.97
2023-04-12T17:43:43.043Z,99744.56
2023-04-12T17:46:14.437Z,99747.69
2023-04-12T17:48:46.896Z,99747.94
2023-04-12T17:51:19.498Z,99739.56
2023-04-12T17:53:48.017Z,99736.75
2023-04-12T17:56:19.727Z,99740.59
2023-04-12T17:58:49.017Z,99730.66
2023-04-12T18:01:17.894Z,99741.19
2023-04-12T18:03:50.125Z,99741.41
2023-04-12T18:06:21.668Z,99746.34
2023-04-12T18:08:51.582Z,99754.31
2023-04-12T18:11:21.973Z,99750.47
2023-04-12T18:13:53.810Z,99751.00
2023-04-12T18:16:22.339Z,99759.06
2023-04-12T18:18:52.616Z,99764.78
2023-04-12T18:21:23.159Z,99767.91
2023-04-12T18:23:52.923Z,99772.16
2023-04-12T18:26:23.902Z,99776.91
2023-04-12T18:28:53.085Z,99772.25
2023-04-12T18:31:23.216Z,99781.44
2023-04-12T18:33:52.895Z,99774.97
2023-04-12T18:36:23.762Z,99778.31
2023-04-12T18:38:53.228Z,99763.97
2023-04-12T18:41:22.751Z,99754.38
2023-04-12T18:43:54.303Z,99752.38
2023-04-12T18:46:26.744Z,99751.94
2023-04-12T18:49:04.847Z,99754.66
2023-04-12T18:51:36.329Z,99751.69
2023-04-12T18:56:53.559Z,99756.50
2023-04-12T18:59:24.581Z,99765.75
2023-04-12T19:02:01.368Z,99768.28
2023-04-12T19:04:35.182Z,99761.47
2023-04-12T19:07:24.652Z,99765.41
2023-04-12T19:10:00.217Z,99764.19
2023-04-12T19:12:37.614Z,99752.09
2023-04-12T19:15:18.044Z,99757.88
2023-04-12T19:18:01.550Z,99752.59
2023-04-12T19:20:36.503Z,99749.38
2023-04-12T19:23:12.067Z,99755.03
2023-04-12T19:25:47.159Z,99746.72
2023-04-12T19:28:17.200Z,99742.13
2023-04-12T19:30:46.938Z,99735.53
2023-04-12T19:33:21.047Z,99734.56
2023-04-12T19:35:51.748Z,99728.72
2023-04-12T19:38:24.050Z,99730.00
2023-04-12T19:40:54.573Z,99729.28
2023-04-12T19:43:25.691Z,99726.50
2023-04-12T19:45:55.742Z,99719.78
2023-04-12T19:48:25.114Z,99733.09
2023-04-12T19:50:55.352Z,99711.41
2023-04-12T19:53:27.390Z,99715.63
2023-04-12T19:56:05.929Z,99714.34
2023-04-12T19:58:45.764Z,99708.28
2023-04-12T20:01:16.160Z,99702.25
2023-04-12T20:03:49.636Z,99702.56
2023-04-12T20:06:22.384Z,99699.97
2023-04-12T20:09:11.248Z,99703.34
2023-04-12T20:11:45.160Z,99702.22
2023-04-12T20:17:16.104Z,99698.81
2023-04-12T20:19:48.024Z,99682.47
2023-04-12T20:22:19.260Z,99685.47
2023-04-12T20:24:49.805Z,99670.28
2023-04-12T20:27:21.527Z,99671.00
2023-04-12T20:29:50.460Z,99667.31
2023-04-12T20:32:19.516Z,99680.91
2023-04-12T20:34:50.009Z,99663.44
2023-04-12T20:37:19.198Z,99671.56
2023-04-12T20:39:49.901Z,99653.59
2023-04-12T20:42:20.614Z,99656.34
2023-04-12T20:44:49.721Z,99652.59
2023-04-12T20:47:21.176Z,99651.84
2023-04-12T20:49:50.577Z,99641.06
2023-04-12T20:52:19.582Z,99635.28
2023-04-12T20:54:49.383Z,99634.25
2023-04-12T20:57:20.025Z,99625.81
2023-04-12T20:59:48.599Z,99609.25
2023-04-12T21:02:17.902Z,99604.94
2023-04-12T21:04:47.214Z,99594.97
2023-04-12T21:07:18.180Z,99598.44
2023-04-12T21:09:48.027Z,99591.34
2023-04-12T21:12:17.697Z,99590.72
2023-04-12T21:14:50.062Z,99588.09
2023-04-12T21:17:22.493Z,99560.00
2023-04-12T21:19:51.241Z,99560.81
2023-04-12T21:22:19.826Z,99553.69
2023-04-12T21:24:50.155Z,99554.81
2023-04-12T21:27:19.718Z,99539.13
2023-04-12T21:29:48.344Z,99536.59
2023-04-12T21:32:17.079Z,99544.47
2023-04-12T21:34:45.456Z,99536.16
2023-04-12T21:37:13.892Z,99535.97
2023-04-12T21:39:43.756Z,99527.91
2023-04-12T21:42:13.466Z,99525.16
2023-04-12T21:44:43.394Z,99501.59
2023-04-12T21:47:12.169Z,99495.25
2023-04-12T21:49:40.680Z,99490.28
2023-04-12T21:52:08.988Z,99506.28
2023-04-12T21:54:37.507Z,99482.06
2023-04-12T21:57:06.309Z,99482.06
2023-04-12T21:59:36.218Z,99471.47
2023-04-12T22:02:04.864Z,99481.84
2023-04-12T22:04:33.515Z,99482.47
2023-04-12T22:07:05.351Z,99461.78
2023-04-12T22:09:45.429Z,99475.56
2023-04-12T22:12:18.591Z,99481.19
2023-04-12T22:14:51.080Z,99476.06
2023-04-12T22:17:22.539Z,99461.44
2023-04-12T22:19:53.245Z,99467.56
2023-04-12T22:22:21.717Z,99472.31
2023-04-12T22:24:50.287Z,99482.19
2023-04-12T22:27:18.504Z,99470.06
2023-04-12T22:29:51.069Z,99469.69
2023-04-12T22:32:19.553Z,99479.25
2023-04-12T22:34:54.838Z,99466.50
2023-04-12T22:37:30.040Z,99477.66
2023-04-12T22:39:58.238Z,99462.72
2023-04-12T22:42:29.822Z,99485.44
2023-04-12T22:44:59.858Z,99473.59
2023-04-12T22:47:28.784Z,99469.75
2023-04-12T22:50:01.637Z,99488.72
2023-04-12T22:52:31.179Z,99485.00
2023-04-12T22:54:59.581Z,99476.56
2023-04-12T22:57:27.827Z,99465.78
2023-04-12T22:59:57.746Z,99488.50
2023-04-12T23:02:27.848Z,99469.84
2023-04-12T23:04:56.137Z,99463.66
2023-04-12T23:07:24.606Z,99471.34
2023-04-12T23:09:52.935Z,99459.06
2023-04-12T23:12:21.985Z,99454.44
2023-04-12T23:14:50.865Z,99450.00
2023-04-12T23:17:19.711Z,99449.16
2023-04-12T23:19:51.752Z,99440.34
2023-04-12T23:22:44.460Z,99437.06
2023-04-12T23:25:22.467Z,99440.00
2023-04-12T23:27:51.217Z,99432.06
2023-04-12T23:30:20.279Z,99426.16
2023-04-12T23:32:48.747Z,99424.28
2023-04-12T23:35:18.572Z,99419.41
2023-04-12T23:37:48.543Z,99437.47
2023-04-12T23:40:16.984Z,99424.69
2023-04-12T23:42:45.419Z,99421.53
2023-04-12T23:45:13.737Z,99428.94
2023-04-12T23:47:42.197Z,99401.06
2023-04-12T23:50:11.537Z,99404.78
2023-04-12T23:52:41.259Z,99411.50
2023-04-12T23:55:10.840Z,99414.69
2023-04-12T23:57:39.295Z,99401.69
